Latest Coastal Weather Observations for Maria Island

IDT60701

Issued at 2:12 pm EDT Thursday 22 February 2018 (issued every 10 minutes, with the page automatically refreshed every 10 minutes)

About coastal observations | Map of coastal stations | Coastal observations for TAS | Marine services | Other Formats
Station Details ID: 092124 Name: MARIA ISLAND (POINT LESUEUR) Lat: -42.66 Lon: 148.02 Height: 28.0 m
Data from the previous 72 hours. | See also: Recent months at Maria Island
Date/Time
EDT
Temp
°C
Wind Pressure Rain since
9am
mm
Weather Cloud Vis
km
Sea
Height
m
Swell
Dir  Spd
kts
Gust
kts
hPa Trend Height
m
Period
s
Dir
22/02:00pm 21.0 N 10 13 1016.9 - 0.0 - - - - - - -
22/01:30pm 21.4 N 11 15 1016.9 - 0.0 - - - - - - -
22/01:00pm 21.4 N 11 14 1017.1 - 0.0 - - - - - - -
22/12:30pm 20.4 N 8 9 1017.5 - 0.0 - - - - - - -
22/12:00pm 20.7 N 9 10 1017.8 - 0.0 - - - - - - -
22/11:30am 20.3 N 8 10 1017.9 - 0.0 - - - - - - -
22/11:00am 19.2 N 7 9 1018.2 - 0.0 - - - - - - -
22/10:30am 18.5 N 7 9 1018.3 - 0.0 - - - - - - -
22/10:00am 17.2 N 7 8 1018.4 - 0.0 - - - - - - -
22/09:30am 16.8 N 7 8 1018.6 - 0.0 - - - - - - -
22/09:00am 15.3 NNW 3 4 1018.9 - 0.0 - - - - - - -
22/08:30am 14.6 NW 2 3 1018.8 - 0.0 - - - - - - -
22/08:00am 13.9 NW 3 3 1018.5 - 0.0 - - - - - - -
22/07:30am 13.4 NNW 2 3 1018.0 - 0.0 - - - - - - -
22/07:00am 12.9 N 4 4 1017.8 - 0.0 - - - - - - -
22/06:30am 13.2 NNW 3 3 1017.8 - 0.0 - - - - - - -
22/06:00am 14.2 NW 2 4 1017.6 - 0.0 - - - - - - -
22/05:30am 13.7 NNW 2 4 1017.4 - 0.0 - - - - - - -
22/05:00am 13.4 NW 3 3 1017.3 - 0.0 - - - - - - -
22/04:30am 13.4 N 2 3 1017.2 - 0.0 - - - - - - -
22/04:00am 13.6 NW 1 2 1017.3 - 0.0 - - - - - - -
22/03:30am 13.5 WNW 4 5 1017.4 - 0.0 - - - - - - -
22/03:00am 13.2 NNW 3 5 1017.4 - 0.0 - - - - - - -
22/02:30am 14.2 NNW 2 2 1017.5 - 0.0 - - - - - - -
22/02:00am 13.8 WNW 4 5 1017.7 - 0.0 - - - - - - -
22/01:30am 13.9 W 3 4 1017.8 - 0.0 - - - - - - -
22/01:00am 15.0 W 2 3 1017.8 - 0.0 - - - - - - -
22/12:30am 14.3 W 2 3 1017.8 - 0.0 - - - - - - -
22/12:00am 15.2 WNW 1 2 1017.9 - 0.0 - - - - - - -
 
Date/Time
EDT
Temp
°C
Wind Pressure Rain since
9am
mm
Weather Cloud Vis
km
Sea
Height
m
Swell
Dir  Spd
kts
Gust
kts
hPa Trend Height
m
Period
s
Dir
21/11:30pm 15.6 W 1 2 1018.3 - 0.0 - - - - - - -
21/11:00pm 16.1 NNE 3 4 1018.4 - 0.0 - - - - - - -
21/10:30pm 16.6 NNE 7 9 1018.3 - 0.0 - - - - - - -
21/10:00pm 17.0 N 8 10 1018.0 - 0.0 - - - - - - -
21/09:30pm 17.1 N 8 10 1017.9 - 0.0 - - - - - - -
21/09:00pm 17.3 N 11 12 1017.5 - 0.0 - - - - - - -
21/08:30pm 17.2 N 8 10 1017.2 - 0.0 - - - - - - -
21/08:00pm 17.1 N 8 10 1016.9 - 0.0 - - - - - - -
21/07:30pm 17.5 N 11 13 1016.7 - 0.0 - - - - - - -
21/07:00pm 17.5 N 12 13 1016.6 - 0.0 - - - - - - -
21/06:30pm 18.2 N 11 12 1016.4 - 0.0 - - - - - - -
21/06:00pm 18.5 N 13 14 1016.6 - 0.0 - - - - - - -
21/05:30pm 18.9 N 10 14 1016.6 - 0.0 - - - - - - -
21/05:00pm 18.3 NNE 12 15 1016.4 - 0.0 - - - - - - -
21/04:30pm 18.5 N 13 15 1016.3 - 0.0 - - - - - - -
21/04:00pm 18.6 N 13 15 1016.7 - 0.0 - - - - - - -
21/03:30pm 18.7 N 14 16 1016.8 - 0.0 - - - - - - -
21/03:00pm 18.9 N 12 14 1017.2 - 0.0 - - - - - - -
21/02:30pm 18.8 N 11 13 1017.6 - 0.0 - - - - - - -
21/02:00pm 18.8 N 12 14 1017.9 - 0.0 - - - - - - -
21/01:30pm 18.4 N 16 19 1018.2 - 0.0 - - - - - - -
21/01:00pm 18.1 N 17 20 1018.0 - 0.0 - - - - - - -
21/12:30pm 16.9 N 20 23 1018.2 - 0.0 - - - - - - -
21/12:00pm 17.3 N 17 22 1018.5 - 0.0 - - - - - - -
21/11:30am 16.6 N 19 23 1018.5 - 0.0 - - - - - - -
21/11:00am 16.9 N 15 18 1019.1 - 0.0 - - - - - - -
21/10:30am 15.7 N 16 19 1019.7 - 0.0 - - - - - - -
21/10:00am 15.4 N 15 18 1019.9 - 0.0 - - - - - - -
21/09:30am 15.1 N 15 17 1019.9 - 0.0 - - - - - - -
21/09:00am 14.7 N 11 14 1020.1 - 0.0 - - - - - - -
21/08:30am 13.9 NNW 9 10 1020.3 - 0.0 - - - - - - -
21/08:00am 13.4 NNW 9 10 1020.3 - 0.0 - - - - - - -
21/07:30am 13.4 NNW 8 10 1020.1 - 0.0 - - - - - - -
21/07:00am 13.6 N 9 11 1019.9 - 0.0 - - - - - - -
21/06:30am 13.4 NNW 9 11 1019.9 - 0.0 - - - - - - -
21/06:00am 13.5 NNW 10 11 1019.8 - 0.0 - - - - - - -
21/05:30am 13.7 NNW 10 12 1019.7 - 0.0 - - - - - - -
21/05:00am 14.2 N 14 16 1019.5 - 0.0 - - - - - - -
21/04:30am 13.9 N 11 14 1019.6 - 0.0 - - - - - - -
21/04:00am 13.9 N 11 16 1020.1 - 0.0 - - - - - - -
21/03:30am 14.3 N 13 17 1020.3 - 0.0 - - - - - - -
21/03:00am 14.2 N 12 17 1020.1 - 0.0 - - - - - - -
21/02:30am 13.9 NNW 11 14 1020.5 - 0.0 - - - - - - -
21/02:00am 14.1 N 10 13 1020.7 - 0.0 - - - - - - -
21/01:30am 13.7 NNE 8 11 1021.1 - 0.0 - - - - - - -
21/01:00am 13.0 NNE 9 12 1021.0 - 0.0 - - - - - - -
21/12:30am 13.7 N 9 12 1021.3 - 0.0 - - - - - - -
21/12:00am 12.0 NNE 7 9 1021.6 - 0.0 - - - - - - -
 
Date/Time
EDT
Temp
°C
Wind Pressure Rain since
9am
mm
Weather Cloud Vis
km
Sea
Height
m
Swell
Dir  Spd
kts
Gust
kts
hPa Trend Height
m
Period
s
Dir
20/11:30pm 11.8 NE 8 9 1022.2 - 0.0 - - - - - - -
20/11:00pm 12.0 NNE 6 7 1022.8 - 0.0 - - - - - - -
20/10:30pm 11.8 NNE 4 4 1022.8 - 0.0 - - - - - - -
20/10:00pm 12.3 NNE 4 5 1023.0 - 0.0 - - - - - - -
20/09:30pm 13.0 N 3 3 1022.8 - 0.0 - - - - - - -
20/09:00pm 12.8 NE 4 5 1022.6 - 0.0 - - - - - - -
20/08:30pm 13.2 ENE 4 5 1022.6 - 0.0 - - - - - - -
20/08:00pm 13.6 ENE 5 7 1022.5 - 0.0 - - - - - - -
20/07:30pm 14.4 ENE 6 8 1022.6 - 0.0 - - - - - - -
20/07:00pm 14.9 ESE 8 10 1022.6 - 0.0 - - - - - - -
20/06:30pm 15.6 E 9 12 1022.8 - 0.0 - - - - - - -
20/06:00pm 15.2 ESE 8 10 1022.9 - 0.0 - - - - - - -
20/05:30pm 15.4 ESE 11 14 1023.0 - 0.0 - - - - - - -
20/05:00pm 15.5 ESE 11 15 1023.2 - 0.0 - - - - - - -
20/04:30pm 15.9 ESE 10 13 1023.5 - 0.0 - - - - - - -
20/04:00pm 15.9 E 9 11 1023.9 - 0.0 - - - - - - -
20/03:30pm 15.6 ESE 10 12 1024.3 - 0.0 - - - - - - -
20/03:00pm 15.6 ESE 9 12 1024.4 - 0.0 - - - - - - -
20/02:30pm 15.6 ESE 8 11 1024.5 - 0.0 - - - - - - -
20/02:00pm 15.4 ESE 9 12 1024.8 - 0.0 - - - - - - -
20/01:30pm 15.2 ESE 7 10 1025.1 - 0.0 - - - - - - -
20/01:00pm 15.1 SSW 4 7 1025.5 - 0.0 - - - - - - -
20/12:30pm 15.4 ESE 6 9 1025.6 - 0.0 - - - - - - -
20/12:00pm 15.6 SE 5 7 1025.8 - 0.0 - - - - - - -
20/11:30am 14.9 SE 5 7 1026.2 - 0.0 - - - - - - -
20/11:00am 14.7 ESE 5 7 1026.5 - 0.0 - - - - - - -
20/10:30am 14.6 ESE 8 11 1026.7 - 0.0 - - - - - - -
20/10:00am 14.3 SSE 7 10 1026.7 - 0.0 - - - - - - -
20/09:30am 13.8 SSE 6 9 1026.8 - 0.0 - - - - - - -
20/09:00am 13.8 SSE 6 8 1026.8 - 0.0 - - - - - - -
20/08:30am 13.7 SE 6 8 1026.7 - 0.0 - - - - - - -
20/08:00am 13.6 S 7 11 1026.5 - 0.0 - - - - - - -
20/07:30am 13.3 SSW 9 12 1026.4 - 0.0 - - - - - - -
20/07:00am 13.2 S 10 13 1026.3 - 0.0 - - - - - - -
20/06:30am 13.3 SSE 7 10 1026.1 - 0.0 - - - - - - -
20/06:00am 13.3 SSE 8 12 1026.0 - 0.0 - - - - - - -
20/05:30am 13.2 SSE 10 14 1025.7 - 0.0 - - - - - - -
20/05:00am 13.4 S 9 12 1025.6 - 0.0 - - - - - - -
20/04:30am 13.4 S 11 14 1025.5 - 0.0 - - - - - - -
20/04:00am 13.3 S 9 12 1025.7 - 0.0 - - - - - - -
20/03:30am 13.0 SSW 14 17 1025.8 - 0.0 - - - - - - -
20/03:00am 12.9 SW 14 18 1025.6 - 0.0 - - - - - - -
20/02:30am 12.9 SSW 14 17 1025.7 - 0.0 - - - - - - -
20/02:00am 13.2 SSW 14 17 1025.7 - 0.0 - - - - - - -
20/01:30am 13.0 SW 12 15 1025.5 - 0.0 - - - - - - -
20/01:00am 13.1 SSW 11 14 1025.6 - 0.0 - - - - - - -
20/12:30am 13.1 SSW 12 15 1025.7 - 0.0 - - - - - - -
20/12:00am 13.1 S 11 14 1025.8 - 0.0 - - - - - - -
 
Date/Time
EDT
Temp
°C
Wind Pressure Rain since
9am
mm
Weather Cloud Vis
km
Sea
Height
m
Swell
Dir  Spd
kts
Gust
kts
hPa Trend Height
m
Period
s
Dir
19/11:30pm 13.3 S 12 15 1026.1 - 0.0 - - - - - - -
19/11:00pm 13.2 S 10 14 1026.2 - 0.0 - - - - - - -
19/10:30pm 13.2 S 12 15 1026.4 - 0.0 - - - - - - -
19/10:00pm 13.0 S 11 14 1026.2 - 0.0 - - - - - - -
19/09:30pm 13.1 S 12 15 1026.1 - 0.0 - - - - - - -
19/09:00pm 13.1 S 14 17 1026.0 - 0.0 - - - - - - -
19/08:30pm 13.2 S 13 17 1025.9 - 0.0 - - - - - - -
19/08:00pm 13.2 S 12 17 1025.8 - 0.0 - - - - - - -
19/07:30pm 13.3 S 12 16 1025.6 - 0.0 - - - - - - -
19/07:00pm 13.5 SSE 14 19 1025.2 - 0.0 - - - - - - -
19/06:30pm 13.8 SSE 16 21 1025.1 - 0.0 - - - - - - -
19/06:00pm 13.7 SSE 17 21 1025.1 - 0.0 - - - - - - -
19/05:30pm 14.3 SSE 16 20 1025.1 - 0.0 - - - - - - -
19/05:00pm 14.4 SSE 16 20 1025.0 - 0.0 - - - - - - -
19/04:30pm 14.3 SSE 16 19 1025.0 - 0.0 - - - - - - -
19/04:00pm 14.2 SSE 16 19 1024.9 - 0.0 - - - - - - -
19/03:30pm 14.4 SSE 13 18 1024.8 - 0.0 - - - - - - -
19/03:00pm 14.9 SSE 12 16 1024.8 - 0.0 - - - - - - -
19/02:30pm 14.7 SSE 15 19 1024.7 - 0.0 - - - - - - -

Other Formats:

Comma delimited format used in spreadsheet applications
http://www.bom.gov.au/fwo/IDT60701/IDT60701.95988.axf

JavaScript Object Notation format (JSON) in row-major order
http://www.bom.gov.au/fwo/IDT60701/IDT60701.95988.json